createdAt,value
2019-02-27T00:01:00.599Z,59.83
2019-02-27T00:03:34.151Z,60.63
2019-02-27T00:06:07.634Z,56.17
2019-02-27T00:08:41.085Z,49.73
2019-02-27T00:11:14.540Z,49.70
2019-02-27T00:13:48.043Z,48.83
2019-02-27T00:16:21.472Z,46.37
2019-02-27T00:18:58.525Z,43.77
2019-02-27T00:21:30.066Z,42.63
2019-02-27T00:24:03.539Z,44.23
2019-02-27T00:26:39.545Z,43.03
2019-02-27T00:29:13.686Z,41.03
2019-02-27T00:31:47.153Z,41.60
2019-02-27T00:34:20.632Z,45.17
2019-02-27T00:36:54.072Z,43.73
2019-02-27T00:39:30.836Z,50.43
2019-02-27T00:42:02.659Z,48.37
2019-02-27T00:44:36.142Z,48.50
2019-02-27T00:47:09.564Z,50.37
2019-02-27T00:49:43.021Z,49.07
2019-02-27T00:52:18.379Z,47.37
2019-02-27T00:54:51.586Z,46.70
2019-02-27T00:57:25.039Z,51.03
2019-02-27T00:59:58.468Z,49.23
2019-02-27T01:02:31.946Z,49.60
2019-02-27T01:05:09.191Z,49.43
2019-02-27T01:07:41.514Z,47.03
2019-02-27T01:10:14.957Z,50.50
2019-02-27T01:12:48.448Z,50.57
2019-02-27T01:15:21.885Z,52.93
2019-02-27T01:17:57.568Z,58.63
2019-02-27T01:20:30.438Z,62.10
2019-02-27T01:23:03.896Z,61.13
2019-02-27T01:25:37.448Z,75.03
2019-02-27T01:28:11.601Z,90.40
2019-02-27T01:30:45.100Z,81.77
2019-02-27T01:33:18.543Z,85.70
2019-02-27T01:35:52.433Z,102.93
2019-02-27T01:38:25.952Z,94.17
2019-02-27T01:40:59.396Z,92.90
2019-02-27T01:43:32.867Z,77.40
2019-02-27T01:46:06.321Z,92.97
2019-02-27T01:48:42.579Z,89.00
2019-02-27T01:51:14.896Z,81.70
2019-02-27T01:53:48.340Z,81.67
2019-02-27T01:56:21.785Z,84.77
2019-02-27T01:58:55.262Z,87.23
2019-02-27T02:01:30.267Z,75.53
2019-02-27T02:04:03.854Z,72.57
2019-02-27T02:06:37.291Z,79.60
2019-02-27T02:09:31.137Z,68.40
2019-02-27T02:12:19.490Z,74.70
2019-02-27T02:14:56.064Z,72.77
2019-02-27T02:17:41.656Z,66.87
2019-02-27T02:20:40.832Z,68.90
2019-02-27T02:23:25.838Z,63.90
2019-02-27T02:26:17.225Z,94.37
2019-02-27T02:29:08.626Z,86.27
2019-02-27T02:31:57.398Z,105.77
2019-02-27T02:34:45.531Z,69.67
2019-02-27T02:37:27.850Z,72.40
2019-02-27T02:40:19.228Z,107.83
2019-02-27T02:43:03.153Z,74.63
2019-02-27T02:45:40.149Z,74.97
2019-02-27T02:48:22.519Z,83.03
2019-02-27T02:51:29.119Z,94.00
2019-02-27T02:54:15.126Z,106.80
2019-02-27T02:57:12.821Z,78.17
2019-02-27T03:00:01.902Z,80.93
2019-02-27T03:03:00.960Z,73.50
2019-02-27T03:05:46.757Z,76.83
2019-02-27T03:08:38.299Z,73.47
2019-02-27T03:11:31.370Z,60.30
2019-02-27T03:14:08.098Z,65.87
2019-02-27T03:17:10.224Z,63.87
2019-02-27T03:20:03.481Z,68.87
2019-02-27T03:23:02.487Z,64.43
2019-02-27T03:25:50.833Z,58.77
2019-02-27T03:28:30.572Z,57.13
2019-02-27T03:31:16.308Z,73.13
2019-02-27T03:33:45.605Z,65.27
2019-02-27T03:36:31.256Z,57.97
2019-02-27T03:39:34.974Z,91.43
2019-02-27T03:42:38.717Z,63.60
2019-02-27T03:45:21.382Z,64.37
2019-02-27T03:48:00.608Z,69.83
2019-02-27T03:50:49.641Z,78.03
2019-02-27T03:53:33.349Z,60.67
2019-02-27T03:56:26.412Z,66.77
2019-02-27T03:59:08.621Z,68.70
2019-02-27T04:01:53.532Z,92.00
2019-02-27T04:04:35.973Z,92.10
2019-02-27T04:07:31.560Z,59.03
2019-02-27T04:10:03.810Z,61.27
2019-02-27T04:12:37.244Z,59.07
2019-02-27T04:15:10.789Z,62.80
2019-02-27T04:17:43.317Z,66.47
2019-02-27T04:20:17.060Z,54.07
2019-02-27T04:22:50.506Z,62.70
2019-02-27T04:25:23.991Z,62.17
2019-02-27T04:27:57.452Z,61.40
2019-02-27T04:30:30.887Z,64.53
2019-02-27T04:33:04.486Z,68.30
2019-02-27T04:35:39.682Z,61.27
2019-02-27T04:38:13.045Z,57.80
2019-02-27T04:40:46.479Z,65.47
2019-02-27T04:43:19.935Z,97.93
2019-02-27T04:45:53.425Z,74.83
2019-02-27T04:48:27.089Z,64.40
2019-02-27T04:51:01.976Z,81.77
2019-02-27T04:53:35.447Z,84.67
2019-02-27T04:56:08.930Z,61.40
2019-02-27T04:58:43.264Z,58.70
2019-02-27T05:01:17.136Z,90.10
2019-02-27T05:03:50.582Z,62.13
2019-02-27T05:06:24.066Z,71.83
2019-02-27T05:08:59.738Z,68.17
2019-02-27T05:11:32.631Z,63.53
2019-02-27T05:14:06.082Z,58.23
2019-02-27T05:16:39.561Z,59.57
2019-02-27T05:19:15.209Z,66.87
2019-02-27T05:21:52.298Z,68.13
2019-02-27T05:24:23.905Z,70.93
2019-02-27T05:26:58.106Z,57.13
2019-02-27T05:29:32.479Z,53.13
2019-02-27T05:32:06.210Z,54.73
2019-02-27T05:34:42.689Z,84.77
2019-02-27T05:37:16.799Z,70.07
2019-02-27T05:39:51.150Z,66.17
2019-02-27T05:42:25.218Z,61.63
2019-02-27T05:44:58.715Z,72.03
2019-02-27T05:47:35.312Z,59.20
2019-02-27T05:50:11.034Z,57.13
2019-02-27T05:52:48.399Z,61.80
2019-02-27T05:55:19.578Z,73.40
2019-02-27T05:57:53.052Z,57.70
2019-02-27T06:00:26.487Z,56.23
2019-02-27T06:02:59.953Z,49.20
2019-02-27T06:05:33.626Z,50.27
2019-02-27T06:08:08.513Z,55.33
2019-02-27T06:10:41.945Z,48.27
2019-02-27T06:13:15.414Z,46.50
2019-02-27T06:15:49.259Z,44.97
2019-02-27T06:18:23.649Z,42.00
2019-02-27T06:20:57.288Z,38.83
2019-02-27T06:23:30.758Z,41.13
2019-02-27T06:26:04.185Z,37.10
2019-02-27T06:28:37.710Z,39.97
2019-02-27T06:31:11.352Z,39.33
2019-02-27T06:33:45.786Z,41.73
2019-02-27T06:36:19.305Z,41.10
2019-02-27T06:38:52.746Z,41.03
2019-02-27T06:41:26.228Z,41.47
2019-02-27T06:44:01.501Z,42.17
2019-02-27T06:46:34.895Z,26.23
2019-02-27T06:49:08.331Z,42.20
2019-02-27T06:51:41.947Z,44.27
2019-02-27T06:54:20.366Z,40.23
2019-02-27T06:56:53.837Z,43.53
2019-02-27T06:59:27.307Z,38.63
2019-02-27T07:02:00.776Z,39.63
2019-02-27T07:04:36.475Z,41.37
2019-02-27T07:07:09.349Z,41.07
2019-02-27T07:09:43.201Z,44.43
2019-02-27T07:12:21.600Z,43.20
2019-02-27T07:14:53.024Z,43.17
2019-02-27T07:17:26.508Z,40.37
2019-02-27T07:19:59.981Z,36.50
2019-02-27T07:22:33.412Z,38.60
2019-02-27T07:25:10.833Z,41.77
2019-02-27T07:27:44.260Z,39.77
2019-02-27T07:30:18.554Z,44.57
2019-02-27T07:32:51.988Z,46.17
2019-02-27T07:35:27.563Z,49.30
2019-02-27T07:38:00.570Z,47.37
2019-02-27T07:40:34.244Z,45.90
2019-02-27T07:43:07.720Z,47.13
2019-02-27T07:45:42.731Z,43.60
2019-02-27T07:48:16.261Z,45.77
2019-02-27T07:50:49.739Z,41.23
2019-02-27T07:53:23.244Z,42.07
2019-02-27T07:55:56.673Z,42.73
2019-02-27T07:58:33.788Z,42.80
2019-02-27T08:01:05.217Z,44.57
2019-02-27T08:03:38.669Z,42.70
2019-02-27T08:06:12.154Z,44.87
2019-02-27T08:08:45.588Z,40.87
2019-02-27T08:11:19.059Z,47.23
2019-02-27T08:13:52.489Z,40.53
2019-02-27T08:16:25.956Z,44.17
2019-02-27T08:18:59.390Z,45.07
2019-02-27T08:21:32.833Z,44.47
2019-02-27T08:24:07.386Z,46.20
2019-02-27T08:26:41.044Z,44.30
2019-02-27T08:29:14.512Z,44.17
2019-02-27T08:31:49.147Z,46.23
2019-02-27T08:34:23.751Z,43.77
2019-02-27T08:36:58.306Z,44.17
2019-02-27T08:39:32.171Z,42.17
2019-02-27T08:42:06.338Z,42.47
2019-02-27T08:44:43.008Z,43.07
2019-02-27T08:47:16.594Z,43.93
2019-02-27T08:49:51.097Z,43.60
2019-02-27T08:52:25.574Z,42.47
2019-02-27T08:55:05.340Z,46.37
2019-02-27T08:57:37.219Z,48.33
2019-02-27T09:00:17.824Z,42.27
2019-02-27T09:02:52.487Z,44.90
2019-02-27T09:05:28.304Z,45.87
2019-02-27T09:08:02.586Z,43.20
2019-02-27T09:10:37.013Z,43.43
2019-02-27T09:13:11.247Z,46.03
2019-02-27T09:15:45.121Z,45.33
2019-02-27T09:18:19.160Z,47.40
2019-02-27T09:20:54.262Z,43.50
2019-02-27T09:23:28.718Z,42.53
2019-02-27T09:26:03.539Z,42.30
2019-02-27T09:28:38.119Z,41.53
2019-02-27T09:31:12.407Z,42.13
2019-02-27T09:33:46.264Z,43.97
2019-02-27T09:36:20.612Z,39.37
2019-02-27T09:38:57.276Z,41.47
2019-02-27T09:41:29.856Z,42.87
2019-02-27T09:44:03.747Z,44.10
2019-02-27T09:46:37.169Z,41.67
2019-02-27T09:49:10.622Z,44.60
2019-02-27T09:51:44.070Z,42.83
2019-02-27T09:54:17.517Z,44.73
2019-02-27T09:56:50.975Z,47.43
2019-02-27T09:59:24.423Z,46.60
2019-02-27T10:01:57.872Z,47.20
2019-02-27T10:04:31.353Z,49.37
2019-02-27T10:07:04.785Z,46.63
2019-02-27T10:09:40.305Z,48.47
2019-02-27T10:12:13.323Z,47.97
2019-02-27T10:14:47.950Z,45.93
2019-02-27T10:17:21.874Z,46.87
2019-02-27T10:19:55.352Z,41.23
2019-02-27T10:22:28.791Z,42.40
2019-02-27T10:25:02.246Z,38.87
2019-02-27T10:27:35.695Z,37.40
2019-02-27T10:30:12.177Z,39.13
2019-02-27T10:32:45.598Z,38.57
2019-02-27T10:35:19.076Z,33.40
2019-02-27T10:37:54.434Z,35.67
2019-02-27T10:40:27.710Z,35.67
2019-02-27T10:43:01.150Z,34.33
2019-02-27T10:45:34.626Z,33.00
2019-02-27T10:48:08.061Z,32.77
2019-02-27T10:50:41.526Z,27.93
2019-02-27T10:53:14.970Z,22.23
2019-02-27T10:55:49.327Z,19.93
2019-02-27T10:58:24.670Z,16.23
2019-02-27T11:01:01.173Z,14.17
2019-02-27T11:03:33.279Z,13.17
2019-02-27T11:06:06.784Z,14.97
2019-02-27T11:08:40.224Z,12.40
2019-02-27T11:11:16.274Z,13.90
2019-02-27T11:13:52.141Z,12.53
2019-02-27T11:16:23.852Z,13.67
2019-02-27T11:18:57.371Z,12.13
2019-02-27T11:21:30.802Z,12.37
2019-02-27T11:24:04.362Z,14.77
2019-02-27T11:26:37.843Z,14.13
2019-02-27T11:29:11.304Z,14.20
2019-02-27T11:31:45.529Z,13.50
2019-02-27T11:34:19.548Z,17.77
2019-02-27T11:36:52.992Z,22.53
2019-02-27T11:39:26.452Z,23.13
2019-02-27T11:42:00.135Z,19.47
2019-02-27T11:44:33.587Z,20.33
2019-02-27T11:47:10.959Z,18.20
2019-02-27T11:49:42.142Z,19.70
2019-02-27T11:52:15.600Z,20.30
2019-02-27T11:54:49.060Z,20.60
2019-02-27T11:57:22.510Z,20.43
2019-02-27T11:59:55.970Z,21.13
2019-02-27T12:02:36.724Z,16.63
2019-02-27T12:05:06.673Z,16.63
2019-02-27T12:07:41.746Z,18.40
2019-02-27T12:10:20.606Z,17.17
2019-02-27T12:12:59.697Z,14.77
2019-02-27T12:15:29.172Z,18.53
2019-02-27T12:18:02.601Z,14.50
2019-02-27T12:20:36.084Z,13.97
2019-02-27T12:23:10.183Z,14.30
2019-02-27T12:25:44.182Z,13.17
2019-02-27T12:28:19.414Z,12.90
2019-02-27T12:30:52.939Z,13.07
2019-02-27T12:33:29.162Z,11.30
2019-02-27T12:36:01.570Z,11.00
2019-02-27T12:38:35.019Z,9.80
2019-02-27T12:41:08.496Z,9.47
2019-02-27T12:43:41.924Z,8.80
2019-02-27T12:46:15.406Z,9.00
2019-02-27T12:48:48.836Z,6.90
2019-02-27T12:51:22.273Z,7.83
2019-02-27T12:53:56.807Z,9.23
2019-02-27T12:56:30.273Z,6.33
2019-02-27T12:59:03.710Z,5.77
2019-02-27T13:01:37.214Z,7.20
2019-02-27T13:04:15.913Z,6.50
2019-02-27T13:06:45.758Z,6.40
2019-02-27T13:09:19.221Z,5.00
2019-02-27T13:11:52.648Z,4.77
2019-02-27T13:14:26.114Z,5.57
2019-02-27T13:16:59.560Z,5.23
2019-02-27T13:19:33.833Z,4.30
2019-02-27T13:22:08.354Z,4.60
2019-02-27T13:24:43.034Z,4.60
2019-02-27T13:27:16.657Z,4.20
2019-02-27T13:29:52.186Z,4.37
2019-02-27T13:32:27.340Z,3.90
2019-02-27T13:35:00.275Z,3.87
2019-02-27T13:37:36.102Z,4.03
2019-02-27T13:40:15.013Z,4.17
2019-02-27T13:42:52.284Z,3.37
2019-02-27T13:45:28.748Z,2.70
2019-02-27T13:48:05.227Z,2.00
2019-02-27T13:50:37.256Z,2.50
2019-02-27T13:53:10.712Z,2.83
2019-02-27T13:55:45.335Z,2.53
2019-02-27T13:58:19.265Z,2.50
2019-02-27T14:00:53.566Z,2.73
2019-02-27T14:03:29.501Z,2.70
2019-02-27T14:06:02.948Z,2.50
2019-02-27T14:08:36.441Z,3.40
2019-02-27T14:11:09.885Z,3.03
2019-02-27T14:13:44.826Z,2.30
2019-02-27T14:16:18.403Z,2.10
2019-02-27T14:18:54.188Z,2.77
2019-02-27T14:21:28.133Z,2.30
2019-02-27T14:24:04.640Z,2.57
2019-02-27T14:26:41.499Z,1.90
2019-02-27T14:29:14.736Z,2.10
2019-02-27T14:31:49.388Z,2.90
2019-02-27T14:34:27.162Z,3.50
2019-02-27T14:36:59.936Z,3.23
2019-02-27T14:39:33.760Z,3.53
2019-02-27T14:42:09.864Z,3.80
2019-02-27T14:44:43.783Z,3.67
2019-02-27T14:47:17.968Z,3.90
2019-02-27T14:49:51.381Z,3.70
2019-02-27T14:52:24.864Z,3.83
2019-02-27T14:55:02.973Z,4.20
2019-02-27T14:57:33.417Z,3.50
2019-02-27T15:00:10.212Z,3.83
2019-02-27T15:02:43.646Z,3.50
2019-02-27T15:05:17.108Z,3.90
2019-02-27T15:07:53.646Z,4.70
2019-02-27T15:10:25.647Z,4.20
2019-02-27T15:12:59.121Z,4.10
2019-02-27T15:15:33.025Z,5.73
2019-02-27T15:18:06.456Z,4.20
2019-02-27T15:20:41.015Z,4.90
2019-02-27T15:23:14.668Z,4.50
2019-02-27T15:25:48.158Z,4.63
2019-02-27T15:28:21.580Z,4.40
2019-02-27T15:30:55.080Z,4.37
2019-02-27T15:33:28.505Z,4.23
2019-02-27T15:36:01.985Z,4.10
2019-02-27T15:38:35.457Z,3.67
2019-02-27T15:41:08.875Z,4.33
2019-02-27T15:43:42.326Z,4.50
2019-02-27T15:46:15.776Z,5.63
2019-02-27T15:48:49.258Z,5.73
2019-02-27T15:51:22.692Z,5.80
2019-02-27T15:53:56.176Z,7.00
2019-02-27T15:56:29.647Z,8.70
2019-02-27T15:59:06.294Z,9.40
2019-02-27T16:01:38.519Z,9.50
2019-02-27T16:04:12.060Z,7.90
2019-02-27T16:06:45.537Z,7.93
2019-02-27T16:09:18.972Z,10.23
2019-02-27T16:11:52.661Z,13.13
2019-02-27T16:14:26.098Z,13.50
2019-02-27T16:16:59.590Z,15.07
2019-02-27T16:19:33.038Z,12.17
2019-02-27T16:22:06.517Z,12.77
2019-02-27T16:24:41.938Z,15.13
2019-02-27T16:27:15.104Z,17.47
2019-02-27T16:29:48.615Z,14.10
2019-02-27T16:32:22.071Z,12.67
2019-02-27T16:34:55.549Z,16.80
2019-02-27T16:37:29.014Z,14.47
2019-02-27T16:40:02.497Z,16.87
2019-02-27T16:42:36.337Z,19.77
2019-02-27T16:45:17.070Z,19.13
2019-02-27T16:47:50.515Z,20.07
2019-02-27T16:50:27.871Z,22.83
2019-02-27T16:53:00.910Z,24.17
2019-02-27T16:55:36.962Z,25.97
2019-02-27T16:58:09.514Z,24.20
2019-02-27T17:00:42.957Z,25.00
2019-02-27T17:03:16.425Z,27.47
2019-02-27T17:05:49.922Z,28.47
2019-02-27T17:08:23.356Z,29.03
2019-02-27T17:10:56.800Z,29.83
2019-02-27T17:13:30.291Z,32.00
2019-02-27T17:16:07.059Z,31.50
2019-02-27T17:18:43.647Z,32.90
2019-02-27T17:21:22.015Z,33.43
2019-02-27T17:23:52.336Z,31.03
2019-02-27T17:26:25.766Z,31.97
2019-02-27T17:28:59.278Z,33.20
2019-02-27T17:31:35.630Z,33.07
2019-02-27T17:34:13.473Z,36.77
2019-02-27T17:36:44.190Z,37.50
2019-02-27T17:39:21.897Z,39.20
2019-02-27T17:41:52.746Z,38.13
2019-02-27T17:44:26.216Z,36.97
2019-02-27T17:46:59.672Z,35.17
2019-02-27T17:49:33.149Z,32.97
2019-02-27T17:52:11.263Z,34.67
2019-02-27T17:54:43.343Z,32.47
2019-02-27T17:57:16.800Z,33.57
2019-02-27T17:59:50.250Z,36.03
2019-02-27T18:02:23.724Z,36.70
2019-02-27T18:04:57.146Z,35.03
2019-02-27T18:07:34.306Z,34.53
2019-02-27T18:10:09.201Z,32.80
2019-02-27T18:12:45.351Z,31.10
2019-02-27T18:15:22.386Z,31.40
2019-02-27T18:17:55.871Z,32.93
2019-02-27T18:20:29.314Z,35.17
2019-02-27T18:23:02.949Z,37.33
2019-02-27T18:25:41.045Z,39.53
2019-02-27T18:28:11.554Z,40.27
2019-02-27T18:30:45.727Z,37.90
2019-02-27T18:33:19.168Z,37.77
2019-02-27T18:35:54.464Z,34.00
2019-02-27T18:38:28.450Z,37.00
2019-02-27T18:41:03.158Z,36.50
2019-02-27T18:43:38.361Z,33.83
2019-02-27T18:46:12.646Z,32.17
2019-02-27T18:48:47.183Z,36.53
2019-02-27T18:51:21.619Z,34.90
2019-02-27T18:53:56.080Z,34.37
2019-02-27T18:56:29.567Z,31.80
2019-02-27T18:59:03.460Z,32.43
2019-02-27T19:01:41.348Z,41.67
2019-02-27T19:04:15.021Z,40.73
2019-02-27T19:06:52.874Z,47.17
2019-02-27T19:09:29.301Z,47.80
2019-02-27T19:12:03.489Z,44.73
2019-02-27T19:14:46.359Z,45.37
2019-02-27T19:17:18.075Z,41.63
2019-02-27T19:19:52.279Z,39.53
2019-02-27T19:22:26.686Z,43.37
2019-02-27T19:25:03.859Z,54.40
2019-02-27T19:27:38.345Z,50.27
2019-02-27T19:30:14.704Z,47.47
2019-02-27T19:32:51.539Z,46.70
2019-02-27T19:35:26.117Z,45.43
2019-02-27T19:38:00.316Z,42.73
2019-02-27T19:40:34.700Z,42.23
2019-02-27T19:43:10.175Z,41.77
2019-02-27T19:45:44.571Z,46.60
2019-02-27T19:48:20.446Z,49.20
2019-02-27T19:50:54.791Z,49.83
2019-02-27T19:53:28.855Z,52.67
2019-02-27T19:56:03.017Z,46.70
2019-02-27T19:58:37.450Z,45.10
2019-02-27T20:01:13.293Z,42.80
2019-02-27T20:03:47.464Z,44.93
2019-02-27T20:06:21.518Z,41.93
2019-02-27T20:08:55.728Z,39.77
2019-02-27T20:11:29.805Z,38.40
2019-02-27T20:14:05.173Z,38.17
2019-02-27T20:16:38.853Z,38.77
2019-02-27T20:19:21.982Z,39.43
2019-02-27T20:21:49.025Z,41.60
2019-02-27T20:24:23.704Z,41.90
2019-02-27T20:26:58.448Z,40.63
2019-02-27T20:29:31.879Z,38.83
2019-02-27T20:32:06.666Z,39.90
2019-02-27T20:34:42.602Z,37.27
2019-02-27T20:37:17.234Z,36.20
2019-02-27T20:39:52.062Z,39.07
2019-02-27T20:42:26.607Z,36.20
2019-02-27T20:45:01.260Z,39.70
2019-02-27T20:47:38.474Z,41.20
2019-02-27T20:50:20.978Z,46.63
2019-02-27T20:52:50.245Z,46.20
2019-02-27T20:55:23.903Z,48.03
2019-02-27T20:57:57.360Z,48.63
2019-02-27T21:00:35.771Z,46.17
2019-02-27T21:03:06.073Z,48.27
2019-02-27T21:05:41.038Z,44.60
2019-02-27T21:08:14.791Z,46.53
2019-02-27T21:10:48.216Z,47.87
2019-02-27T21:13:23.303Z,45.10
2019-02-27T21:15:57.014Z,47.73
2019-02-27T21:18:32.584Z,48.53
2019-02-27T21:21:09.118Z,46.93
2019-02-27T21:23:46.507Z,48.33
2019-02-27T21:26:19.988Z,47.83
2019-02-27T21:28:58.730Z,47.10
2019-02-27T21:31:28.214Z,49.03
2019-02-27T21:34:04.661Z,50.50
2019-02-27T21:36:38.729Z,46.97
2019-02-27T21:39:12.513Z,48.60
2019-02-27T21:41:46.282Z,49.80
2019-02-27T21:44:25.538Z,47.10
2019-02-27T21:46:54.912Z,46.97
2019-02-27T21:49:31.846Z,46.17
2019-02-27T21:52:03.444Z,46.83
2019-02-27T21:54:39.231Z,44.93
2019-02-27T21:57:12.040Z,46.17
2019-02-27T21:59:46.178Z,45.17
2019-02-27T22:02:20.084Z,44.73
2019-02-27T22:04:54.172Z,44.67
2019-02-27T22:07:32.931Z,45.80
2019-02-27T22:10:03.506Z,45.57
2019-02-27T22:12:37.280Z,44.60
2019-02-27T22:15:21.929Z,45.33
2019-02-27T22:17:51.918Z,46.33
2019-02-27T22:20:26.771Z,47.73
2019-02-27T22:23:00.422Z,47.27
2019-02-27T22:25:33.853Z,48.37
2019-02-27T22:28:07.336Z,49.03
2019-02-27T22:30:40.778Z,48.67
2019-02-27T22:33:14.226Z,47.23
2019-02-27T22:35:47.659Z,45.37
2019-02-27T22:38:25.778Z,45.53
2019-02-27T22:40:56.200Z,43.70
2019-02-27T22:43:29.653Z,42.60
2019-02-27T22:46:03.348Z,41.37
2019-02-27T22:48:36.810Z,42.57
2019-02-27T22:51:12.646Z,40.40
2019-02-27T22:53:45.346Z,42.63
2019-02-27T22:56:18.782Z,41.93
2019-02-27T22:58:52.245Z,40.93
2019-02-27T23:01:27.329Z,40.73
2019-02-27T23:04:00.865Z,39.63
2019-02-27T23:06:34.301Z,43.10
2019-02-27T23:09:08.608Z,40.97
2019-02-27T23:11:42.139Z,44.77
2019-02-27T23:14:18.834Z,42.93
2019-02-27T23:16:50.648Z,42.30
2019-02-27T23:19:24.111Z,44.13
2019-02-27T23:21:58.425Z,44.43
2019-02-27T23:24:31.916Z,44.73
2019-02-27T23:27:05.384Z,42.23
2019-02-27T23:29:40.004Z,44.77
2019-02-27T23:32:13.994Z,44.03
2019-02-27T23:34:47.461Z,42.93
2019-02-27T23:37:20.968Z,41.97
2019-02-27T23:39:54.404Z,41.07
2019-02-27T23:42:28.077Z,37.97
2019-02-27T23:45:05.621Z,35.27
2019-02-27T23:47:40.667Z,34.60
2019-02-27T23:50:14.495Z,34.33
2019-02-27T23:52:47.934Z,37.13
2019-02-27T23:55:25.427Z,37.77
2019-02-27T23:57:58.847Z,37.43
